sensor_id;sensor_type;location;lat;lon;timestamp;pressure;altitude;pressure_sealevel;temperature;humidity
65359;BME280;52491;45.900;6.346;2023-11-18T00:01:48;94595.03;;;23.21;31.28
65359;BME280;52491;45.900;6.346;2023-11-18T00:04:14;94599.34;;;23.22;31.27
65359;BME280;52491;45.900;6.346;2023-11-18T00:06:43;94587.06;;;23.21;31.40
65359;BME280;52491;45.900;6.346;2023-11-18T00:09:12;94585.47;;;23.20;31.27
65359;BME280;52491;45.900;6.346;2023-11-18T00:11:40;94580.34;;;23.19;31.35
65359;BME280;52491;45.900;6.346;2023-11-18T00:14:07;94578.53;;;23.19;31.27
65359;BME280;52491;45.900;6.346;2023-11-18T00:16:32;94577.69;;;23.19;31.21
65359;BME280;52491;45.900;6.346;2023-11-18T00:18:59;94575.28;;;23.17;31.33
65359;BME280;52491;45.900;6.346;2023-11-18T00:21:26;94573.44;;;23.18;31.25
65359;BME280;52491;45.900;6.346;2023-11-18T00:23:53;94580.34;;;23.19;31.30
65359;BME280;52491;45.900;6.346;2023-11-18T00:26:18;94579.81;;;23.17;31.47
65359;BME280;52491;45.900;6.346;2023-11-18T00:28:44;94584.34;;;23.16;31.14
65359;BME280;52491;45.900;6.346;2023-11-18T00:31:09;94584.34;;;23.16;31.24
65359;BME280;52491;45.900;6.346;2023-11-18T00:33:35;94589.06;;;23.14;31.04
65359;BME280;52491;45.900;6.346;2023-11-18T00:36:00;94593.59;;;23.14;31.27
65359;BME280;52491;45.900;6.346;2023-11-18T00:38:26;94595.41;;;23.13;31.04
65359;BME280;52491;45.900;6.346;2023-11-18T00:40:52;94594.63;;;23.13;31.01
65359;BME280;52491;45.900;6.346;2023-11-18T00:43:17;94594.41;;;23.14;31.08
65359;BME280;52491;45.900;6.346;2023-11-18T00:45:43;94592.75;;;23.13;31.10
65359;BME280;52491;45.900;6.346;2023-11-18T00:48:09;94590.09;;;23.13;31.20
65359;BME280;52491;45.900;6.346;2023-11-18T00:50:35;94594.41;;;23.14;30.86
65359;BME280;52491;45.900;6.346;2023-11-18T00:53:00;94596.25;;;23.14;31.12
65359;BME280;52491;45.900;6.346;2023-11-18T00:55:26;94598.91;;;23.14;30.90
65359;BME280;52491;45.900;6.346;2023-11-18T00:57:52;94596.25;;;23.14;30.98
65359;BME280;52491;45.900;6.346;2023-11-18T01:00:18;94601.56;;;23.14;30.95
65359;BME280;52491;45.900;6.346;2023-11-18T01:02:48;94602.38;;;23.14;30.86
65359;BME280;52491;45.900;6.346;2023-11-18T01:05:15;94605.25;;;23.13;30.80
65359;BME280;52491;45.900;6.346;2023-11-18T01:07:41;94611.38;;;23.13;30.88
65359;BME280;52491;45.900;6.346;2023-11-18T01:10:07;94623.88;;;23.13;30.85
65359;BME280;52491;45.900;6.346;2023-11-18T01:12:34;94615.91;;;23.13;30.93
65359;BME280;52491;45.900;6.346;2023-11-18T01:14:59;94614.88;;;23.14;30.85
65359;BME280;52491;45.900;6.346;2023-11-18T01:17:25;94619.59;;;23.12;30.80
65359;BME280;52491;45.900;6.346;2023-11-18T01:19:50;94622.00;;;23.13;30.90
65359;BME280;52491;45.900;6.346;2023-11-18T01:22:16;94623.88;;;23.13;30.84
65359;BME280;52491;45.900;6.346;2023-11-18T01:24:44;94624.94;;;23.12;30.75
65359;BME280;52491;45.900;6.346;2023-11-18T01:27:09;94632.91;;;23.12;30.80
65359;BME280;52491;45.900;6.346;2023-11-18T01:29:36;94628.66;;;23.11;30.90
65359;BME280;52491;45.900;6.346;2023-11-18T01:32:02;94629.19;;;23.13;30.64
65359;BME280;52491;45.900;6.346;2023-11-18T01:34:34;94628.38;;;23.12;30.61
65359;BME280;52491;45.900;6.346;2023-11-18T01:37:00;94622.50;;;23.10;30.65
65359;BME280;52491;45.900;6.346;2023-11-18T01:39:25;94619.81;;;23.10;30.64
65359;BME280;52491;45.900;6.346;2023-11-18T01:41:52;94609.19;;;23.10;30.79
65359;BME280;52491;45.900;6.346;2023-11-18T01:44:18;94610.03;;;23.11;30.67
65359;BME280;52491;45.900;6.346;2023-11-18T01:46:45;94612.69;;;23.11;30.63
65359;BME280;52491;45.900;6.346;2023-11-18T01:49:14;94616.38;;;23.10;30.62
65359;BME280;52491;45.900;6.346;2023-11-18T01:51:44;94619.81;;;23.10;30.65
65359;BME280;52491;45.900;6.346;2023-11-18T01:54:12;94616.38;;;23.10;30.52
65359;BME280;52491;45.900;6.346;2023-11-18T01:56:53;94616.94;;;23.12;30.41
65359;BME280;52491;45.900;6.346;2023-11-18T01:59:19;94608.16;;;23.11;30.58
65359;BME280;52491;45.900;6.346;2023-11-18T02:01:53;94605.72;;;23.10;30.52
65359;BME280;52491;45.900;6.346;2023-11-18T02:04:23;94596.16;;;23.09;30.54
65359;BME280;52491;45.900;6.346;2023-11-18T02:06:50;94594.28;;;23.09;30.51
65359;BME280;52491;45.900;6.346;2023-11-18T02:09:17;94589.78;;;23.10;30.55
65359;BME280;52491;45.900;6.346;2023-11-18T02:14:20;94587.13;;;23.10;30.35
65359;BME280;52491;45.900;6.346;2023-11-18T02:16:48;94580.75;;;23.11;30.50
65359;BME280;52491;45.900;6.346;2023-11-18T02:19:21;94582.59;;;23.10;30.28
65359;BME280;52491;45.900;6.346;2023-11-18T02:21:50;94577.53;;;23.09;30.60
65359;BME280;52491;45.900;6.346;2023-11-18T02:24:30;94587.91;;;23.10;30.29
65359;BME280;52491;45.900;6.346;2023-11-18T02:26:59;94587.13;;;23.10;30.37
65359;BME280;52491;45.900;6.346;2023-11-18T02:29:28;94586.09;;;23.11;30.34
65359;BME280;52491;45.900;6.346;2023-11-18T02:32:02;94591.41;;;23.11;30.30
65359;BME280;52491;45.900;6.346;2023-11-18T02:34:30;94592.44;;;23.10;30.34
65359;BME280;52491;45.900;6.346;2023-11-18T02:36:58;94595.91;;;23.10;30.14
65359;BME280;52491;45.900;6.346;2023-11-18T02:39:38;94593.00;;;23.12;30.27
65359;BME280;52491;45.900;6.346;2023-11-18T02:42:07;94603.88;;;23.10;30.22
65359;BME280;52491;45.900;6.346;2023-11-18T02:44:38;94607.38;;;23.11;30.17
65359;BME280;52491;45.900;6.346;2023-11-18T02:47:04;94612.09;;;23.09;30.21
65359;BME280;52491;45.900;6.346;2023-11-18T02:49:30;94622.50;;;23.10;30.06
65359;BME280;52491;45.900;6.346;2023-11-18T02:51:56;94622.50;;;23.10;30.08
65359;BME280;52491;45.900;6.346;2023-11-18T02:54:22;94625.16;;;23.10;29.90
65359;BME280;52491;45.900;6.346;2023-11-18T02:56:48;94625.16;;;23.10;29.90
65359;BME280;52491;45.900;6.346;2023-11-18T02:59:14;94628.66;;;23.11;30.09
65359;BME280;52491;45.900;6.346;2023-11-18T03:01:39;94625.16;;;23.10;29.98
65359;BME280;52491;45.900;6.346;2023-11-18T03:04:06;94617.16;;;23.10;30.02
65359;BME280;52491;45.900;6.346;2023-11-18T03:06:31;94613.72;;;23.10;29.98
65359;BME280;52491;45.900;6.346;2023-11-18T03:09:01;94600.41;;;23.10;29.92
65359;BME280;52491;45.900;6.346;2023-11-18T03:11:28;94610.81;;;23.11;29.69
65359;BME280;52491;45.900;6.346;2023-11-18T03:13:56;94596.16;;;23.09;29.92
65359;BME280;52491;45.900;6.346;2023-11-18T03:16:23;94594.06;;;23.11;29.62
65359;BME280;52491;45.900;6.346;2023-11-18T03:18:50;94605.72;;;23.10;29.75
65359;BME280;52491;45.900;6.346;2023-11-18T03:21:16;94596.72;;;23.11;29.77
65359;BME280;52491;45.900;6.346;2023-11-18T03:23:42;94596.47;;;23.12;29.69
65359;BME280;52491;45.900;6.346;2023-11-18T03:26:10;94602.59;;;23.13;29.73
65359;BME280;52491;45.900;6.346;2023-11-18T03:28:36;94592.22;;;23.11;29.51
65359;BME280;52491;45.900;6.346;2023-11-18T03:31:05;94596.25;;;23.14;29.55
65359;BME280;52491;45.900;6.346;2023-11-18T03:33:31;94593.00;;;23.12;29.48
65359;BME280;52491;45.900;6.346;2023-11-18T03:35:57;94593.00;;;23.12;29.50
65359;BME280;52491;45.900;6.346;2023-11-18T03:38:23;94577.84;;;23.12;29.62
65359;BME280;52491;45.900;6.346;2023-11-18T03:40:49;94576.25;;;23.11;29.43
65359;BME280;52491;45.900;6.346;2023-11-18T03:43:15;94577.06;;;23.12;29.29
65359;BME280;52491;45.900;6.346;2023-11-18T03:45:40;94568.28;;;23.11;29.38
65359;BME280;52491;45.900;6.346;2023-11-18T03:48:06;94564.81;;;23.11;29.61
65359;BME280;52491;45.900;6.346;2023-11-18T03:50:35;94569.88;;;23.12;29.39
65359;BME280;52491;45.900;6.346;2023-11-18T03:53:00;94573.59;;;23.11;29.39
65359;BME280;52491;45.900;6.346;2023-11-18T03:55:29;94571.16;;;23.10;29.39
65359;BME280;52491;45.900;6.346;2023-11-18T03:57:55;94564.81;;;23.11;29.35
65359;BME280;52491;45.900;6.346;2023-11-18T04:00:22;94564.81;;;23.11;29.32
65359;BME280;52491;45.900;6.346;2023-11-18T04:02:48;94585.03;;;23.12;29.26
65359;BME280;52491;45.900;6.346;2023-11-18T04:05:14;94580.75;;;23.11;29.28
65359;BME280;52491;45.900;6.346;2023-11-18T04:07:40;94579.72;;;23.12;29.45
65359;BME280;52491;45.900;6.346;2023-11-18T04:10:08;94580.50;;;23.12;29.25
65359;BME280;52491;45.900;6.346;2023-11-18T04:12:35;94576.00;;;23.13;29.34
65359;BME280;52491;45.900;6.346;2023-11-18T04:15:01;94576.00;;;23.13;29.23
65359;BME280;52491;45.900;6.346;2023-11-18T04:17:30;94581.31;;;23.13;29.36
65359;BME280;52491;45.900;6.346;2023-11-18T04:19:55;94583.97;;;23.13;29.26
65359;BME280;52491;45.900;6.346;2023-11-18T04:22:22;94583.44;;;23.11;29.09
65359;BME280;52491;45.900;6.346;2023-11-18T04:24:48;94583.16;;;23.12;29.14
65359;BME280;52491;45.900;6.346;2023-11-18T04:27:13;94577.63;;;23.14;29.14
65359;BME280;52491;45.900;6.346;2023-11-18T04:29:39;94576.00;;;23.13;29.09
65359;BME280;52491;45.900;6.346;2023-11-18T04:32:06;94573.34;;;23.13;29.04
65359;BME280;52491;45.900;6.346;2023-11-18T04:34:36;94567.22;;;23.12;29.09
65359;BME280;52491;45.900;6.346;2023-11-18T04:37:03;94568.81;;;23.13;29.06
65359;BME280;52491;45.900;6.346;2023-11-18T04:39:28;94580.28;;;23.14;29.02
65359;BME280;52491;45.900;6.346;2023-11-18T04:41:56;94581.09;;;23.14;28.96
65359;BME280;52491;45.900;6.346;2023-11-18T04:44:22;94570.44;;;23.14;28.85
65359;BME280;52491;45.900;6.346;2023-11-18T04:46:47;94579.22;;;23.15;28.83
65359;BME280;52491;45.900;6.346;2023-11-18T04:49:13;94573.91;;;23.15;28.99
65359;BME280;52491;45.900;6.346;2023-11-18T04:51:38;94576.34;;;23.16;28.91
65359;BME280;52491;45.900;6.346;2023-11-18T04:54:04;94576.34;;;23.16;28.99
65359;BME280;52491;45.900;6.346;2023-11-18T04:56:30;94581.66;;;23.16;28.82
65359;BME280;52491;45.900;6.346;2023-11-18T04:58:56;94576.09;;;23.18;28.82
65359;BME280;52491;45.900;6.346;2023-11-18T05:01:21;94573.44;;;23.18;28.68
65359;BME280;52491;45.900;6.346;2023-11-18T05:03:47;94585.13;;;23.17;28.85
65359;BME280;52491;45.900;6.346;2023-11-18T05:06:12;94571.56;;;23.18;28.99
65359;BME280;52491;45.900;6.346;2023-11-18T05:08:38;94575.28;;;23.17;28.82
65359;BME280;52491;45.900;6.346;2023-11-18T05:11:04;94576.09;;;23.18;28.87
65359;BME280;52491;45.900;6.346;2023-11-18T05:13:30;94574.50;;;23.17;28.86
65359;BME280;52491;45.900;6.346;2023-11-18T05:15:55;94565.47;;;23.18;28.69
65359;BME280;52491;45.900;6.346;2023-11-18T05:18:21;94569.72;;;23.19;28.62
65359;BME280;52491;45.900;6.346;2023-11-18T05:20:46;94558.28;;;23.18;28.78
65359;BME280;52491;45.900;6.346;2023-11-18T05:23:12;94563.38;;;23.20;28.79
65359;BME280;52491;45.900;6.346;2023-11-18T05:25:42;94564.19;;;23.20;28.78
65359;BME280;52491;45.900;6.346;2023-11-18T05:28:11;94571.34;;;23.20;28.70
65359;BME280;52491;45.900;6.346;2023-11-18T05:30:38;94562.56;;;23.19;28.70
65359;BME280;52491;45.900;6.346;2023-11-18T05:33:04;94560.72;;;23.20;28.76
65359;BME280;52491;45.900;6.346;2023-11-18T05:35:34;94567.63;;;23.21;28.73
65359;BME280;52491;45.900;6.346;2023-11-18T05:38:00;94570.56;;;23.19;28.74
65359;BME280;52491;45.900;6.346;2023-11-18T05:40:28;94575.88;;;23.19;28.89
65359;BME280;52491;45.900;6.346;2023-11-18T05:42:54;94566.84;;;23.20;28.97
65359;BME280;52491;45.900;6.346;2023-11-18T05:45:20;94563.38;;;23.20;28.85
65359;BME280;52491;45.900;6.346;2023-11-18T05:47:57;94559.66;;;23.21;28.69
65359;BME280;52491;45.900;6.346;2023-11-18T05:50:23;94566.63;;;23.22;28.86
65359;BME280;52491;45.900;6.346;2023-11-18T05:52:53;94568.44;;;23.21;28.92
65359;BME280;52491;45.900;6.346;2023-11-18T05:55:19;94555.97;;;23.22;28.81
65359;BME280;52491;45.900;6.346;2023-11-18T05:57:45;94551.44;;;23.22;28.86
65359;BME280;52491;45.900;6.346;2023-11-18T06:00:12;94549.34;;;23.24;28.78
65359;BME280;52491;45.900;6.346;2023-11-18T06:02:41;94535.22;;;23.24;29.09
65359;BME280;52491;45.900;6.346;2023-11-18T06:05:07;94544.84;;;23.25;28.68
65359;BME280;52491;45.900;6.346;2023-11-18T06:07:33;94543.00;;;23.26;28.82
65359;BME280;52491;45.900;6.346;2023-11-18T06:09:59;94538.47;;;23.26;28.90
65359;BME280;52491;45.900;6.346;2023-11-18T06:12:26;94538.69;;;23.24;28.89
65359;BME280;52491;45.900;6.346;2023-11-18T06:14:52;94534.22;;;23.25;28.87
65359;BME280;52491;45.900;6.346;2023-11-18T06:17:17;94542.75;;;23.27;28.81
65359;BME280;52491;45.900;6.346;2023-11-18T06:19:44;94546.22;;;23.28;28.84
65359;BME280;52491;45.900;6.346;2023-11-18T06:22:10;94535.59;;;23.28;28.83
65359;BME280;52491;45.900;6.346;2023-11-18T06:24:36;94533.72;;;23.28;28.83
65359;BME280;52491;45.900;6.346;2023-11-18T06:27:04;94535.59;;;23.28;28.92
65359;BME280;52491;45.900;6.346;2023-11-18T06:29:30;94528.41;;;23.28;28.95
65359;BME280;52491;45.900;6.346;2023-11-18T06:31:56;94536.38;;;23.28;28.99
65359;BME280;52491;45.900;6.346;2023-11-18T06:34:22;94531.88;;;23.29;28.94
65359;BME280;52491;45.900;6.346;2023-11-18T06:36:48;94534.31;;;23.30;29.09
65359;BME280;52491;45.900;6.346;2023-11-18T06:39:13;94539.63;;;23.30;29.15
65359;BME280;52491;45.900;6.346;2023-11-18T06:41:39;94528.72;;;23.32;29.03
65359;BME280;52491;45.900;6.346;2023-11-18T06:44:14;94519.16;;;23.31;28.83
65359;BME280;52491;45.900;6.346;2023-11-18T06:46:43;94525.25;;;23.31;28.94
65359;BME280;52491;45.900;6.346;2023-11-18T06:49:09;94536.97;;;23.30;29.00
65359;BME280;52491;45.900;6.346;2023-11-18T06:51:40;94522.59;;;23.31;28.99
65359;BME280;52491;45.900;6.346;2023-11-18T06:54:07;94525.25;;;23.31;29.01
65359;BME280;52491;45.900;6.346;2023-11-18T06:56:36;94542.84;;;23.32;29.22
65359;BME280;52491;45.900;6.346;2023-11-18T06:59:09;94542.03;;;23.32;29.00
65359;BME280;52491;45.900;6.346;2023-11-18T07:01:41;94554.28;;;23.33;28.72
65359;BME280;52491;45.900;6.346;2023-11-18T07:04:09;94556.13;;;23.32;29.11
65359;BME280;52491;45.900;6.346;2023-11-18T07:06:35;94554.53;;;23.31;28.92
65359;BME280;52491;45.900;6.346;2023-11-18T07:09:04;94547.34;;;23.32;29.20
65359;BME280;52491;45.900;6.346;2023-11-18T07:11:37;94541.22;;;23.31;28.92
65359;BME280;52491;45.900;6.346;2023-11-18T07:14:03;94548.16;;;23.32;28.88
65359;BME280;52491;45.900;6.346;2023-11-18T07:16:28;94558.56;;;23.34;29.04
65359;BME280;52491;45.900;6.346;2023-11-18T07:18:54;94566.56;;;23.34;29.10
65359;BME280;52491;45.900;6.346;2023-11-18T07:21:19;94563.09;;;23.33;29.00
65359;BME280;52491;45.900;6.346;2023-11-18T07:23:45;94567.34;;;23.34;29.03
65359;BME280;52491;45.900;6.346;2023-11-18T07:26:11;94562.84;;;23.35;28.98
65359;BME280;52491;45.900;6.346;2023-11-18T07:28:37;94567.34;;;23.34;29.04
65359;BME280;52491;45.900;6.346;2023-11-18T07:31:03;94558.56;;;23.34;29.07
65359;BME280;52491;45.900;6.346;2023-11-18T07:33:30;94563.63;;;23.35;28.91
65359;BME280;52491;45.900;6.346;2023-11-18T07:35:59;94554.06;;;23.34;29.10
65359;BME280;52491;45.900;6.346;2023-11-18T07:38:25;94560.97;;;23.35;29.17
65359;BME280;52491;45.900;6.346;2023-11-18T07:40:52;94565.28;;;23.36;29.02
65359;BME280;52491;45.900;6.346;2023-11-18T07:43:22;94566.28;;;23.35;28.86
65359;BME280;52491;45.900;6.346;2023-11-18T07:45:48;94566.06;;;23.37;28.80
65359;BME280;52491;45.900;6.346;2023-11-18T07:48:21;94571.41;;;23.37;28.93
65359;BME280;52491;45.900;6.346;2023-11-18T07:50:47;94575.09;;;23.36;28.96
65359;BME280;52491;45.900;6.346;2023-11-18T07:53:13;94571.63;;;23.35;29.07
65359;BME280;52491;45.900;6.346;2023-11-18T07:55:39;94566.06;;;23.37;29.01
65359;BME280;52491;45.900;6.346;2023-11-18T07:58:05;94574.84;;;23.37;28.98
65359;BME280;52491;45.900;6.346;2023-11-18T08:00:40;94562.59;;;23.36;29.05
65359;BME280;52491;45.900;6.346;2023-11-18T08:03:09;94564.22;;;23.37;29.10
65359;BME280;52491;45.900;6.346;2023-11-18T08:05:42;94563.72;;;23.40;29.17
65359;BME280;52491;45.900;6.346;2023-11-18T08:08:13;94561.88;;;23.41;29.18
65359;BME280;52491;45.900;6.346;2023-11-18T08:10:42;94561.06;;;23.40;29.33
65359;BME280;52491;45.900;6.346;2023-11-18T08:13:10;94569.84;;;23.41;29.14
65359;BME280;52491;45.900;6.346;2023-11-18T08:15:39;94576.56;;;23.43;29.28
65359;BME280;52491;45.900;6.346;2023-11-18T08:18:05;94585.81;;;23.41;29.23
65359;BME280;52491;45.900;6.346;2023-11-18T08:20:31;94593.81;;;23.41;29.31
65359;BME280;52491;45.900;6.346;2023-11-18T08:22:57;94588.97;;;23.38;29.46
65359;BME280;52491;45.900;6.346;2023-11-18T08:25:23;94586.88;;;23.40;29.30
65359;BME280;52491;45.900;6.346;2023-11-18T08:27:49;94597.53;;;23.40;29.46
65359;BME280;52491;45.900;6.346;2023-11-18T08:30:15;94594.84;;;23.40;29.31
65359;BME280;52491;45.900;6.346;2023-11-18T08:32:44;94594.06;;;23.39;29.57
65359;BME280;52491;45.900;6.346;2023-11-18T08:35:11;94590.34;;;23.40;29.33
65359;BME280;52491;45.900;6.346;2023-11-18T08:37:39;94583.41;;;23.39;29.35
65359;BME280;52491;45.900;6.346;2023-11-18T08:40:06;94589.53;;;23.40;29.37
65359;BME280;52491;45.900;6.346;2023-11-18T08:42:49;94594.06;;;23.39;29.48
65359;BME280;52491;45.900;6.346;2023-11-18T08:45:16;94586.88;;;23.40;29.52
65359;BME280;52491;45.900;6.346;2023-11-18T08:47:43;94590.34;;;23.40;29.42
65359;BME280;52491;45.900;6.346;2023-11-18T08:50:10;94582.03;;;23.37;29.80
65359;BME280;52491;45.900;6.346;2023-11-18T08:52:38;94583.63;;;23.38;29.64
65359;BME280;52491;45.900;6.346;2023-11-18T08:55:11;94579.38;;;23.37;29.80
65359;BME280;52491;45.900;6.346;2023-11-18T08:57:48;94574.84;;;23.37;29.86
65359;BME280;52491;45.900;6.346;2023-11-18T09:00:31;94572.78;;;23.39;29.81
65359;BME280;52491;45.900;6.346;2023-11-18T09:03:17;94567.69;;;23.38;29.74
65359;BME280;52491;45.900;6.346;2023-11-18T09:05:47;94568.81;;;23.42;29.80
65359;BME280;52491;45.900;6.346;2023-11-18T09:08:35;94570.69;;;23.41;29.20
65359;BME280;52491;45.900;6.346;2023-11-18T09:11:09;94570.22;;;23.44;29.87
65359;BME280;52491;45.900;6.346;2023-11-18T09:13:46;94572.28;;;23.42;29.73
65359;BME280;52491;45.900;6.346;2023-11-18T09:16:15;94566.72;;;23.44;29.63
65359;BME280;52491;45.900;6.346;2023-11-18T09:18:42;94572.88;;;23.44;29.42
65359;BME280;52491;45.900;6.346;2023-11-18T09:21:11;94561.38;;;23.44;29.57
65359;BME280;52491;45.900;6.346;2023-11-18T09:23:41;94572.03;;;23.44;29.68
65359;BME280;52491;45.900;6.346;2023-11-18T09:26:08;94562.69;;;23.41;29.16
65359;BME280;52491;45.900;6.346;2023-11-18T09:28:37;94568.56;;;23.43;29.35
65359;BME280;52491;45.900;6.346;2023-11-18T09:31:04;94567.78;;;23.43;29.59
65359;BME280;52491;45.900;6.346;2023-11-18T09:33:31;94565.91;;;23.43;29.63
65359;BME280;52491;45.900;6.346;2023-11-18T09:36:02;94573.09;;;23.43;29.78
65359;BME280;52491;45.900;6.346;2023-11-18T09:38:32;94567.53;;;23.44;29.66
65359;BME280;52491;45.900;6.346;2023-11-18T09:41:02;94566.97;;;23.42;29.74
65359;BME280;52491;45.900;6.346;2023-11-18T09:43:34;94555.25;;;23.43;30.01
65359;BME280;52491;45.900;6.346;2023-11-18T09:49:11;94555.84;;;23.45;30.18
65359;BME280;52491;45.900;6.346;2023-11-18T09:51:42;94558.72;;;23.44;30.23
65359;BME280;52491;45.900;6.346;2023-11-18T09:54:41;94568.09;;;23.46;30.13
65359;BME280;52491;45.900;6.346;2023-11-18T10:02:10;94585.13;;;23.45;30.80
65359;BME280;52491;45.900;6.346;2023-11-18T10:04:37;94587.56;;;23.47;30.87
65359;BME280;52491;45.900;6.346;2023-11-18T10:07:06;94579.56;;;23.47;31.04
65359;BME280;52491;45.900;6.346;2023-11-18T10:09:32;94585.44;;;23.49;30.98
65359;BME280;52491;45.900;6.346;2023-11-18T10:12:08;94577.72;;;23.48;31.37
65359;BME280;52491;45.900;6.346;2023-11-18T10:14:41;94576.66;;;23.49;31.10
65359;BME280;52491;45.900;6.346;2023-11-18T10:17:09;94569.47;;;23.49;31.49
65359;BME280;52491;45.900;6.346;2023-11-18T10:19:51;94557.53;;;23.52;31.48
65359;BME280;52491;45.900;6.346;2023-11-18T10:22:25;94555.13;;;23.50;31.70
65359;BME280;52491;45.900;6.346;2023-11-18T10:24:51;94546.09;;;23.51;32.05
65359;BME280;52491;45.900;6.346;2023-11-18T10:27:28;94542.16;;;23.54;32.13
65359;BME280;52491;45.900;6.346;2023-11-18T10:30:03;94546.19;;;23.56;32.20
65359;BME280;52491;45.900;6.346;2023-11-18T10:32:29;94529.16;;;23.57;31.97
65359;BME280;52491;45.900;6.346;2023-11-18T10:34:58;94528.66;;;23.60;32.32
65359;BME280;52491;45.900;6.346;2023-11-18T10:37:26;94540.94;;;23.61;32.41
65359;BME280;52491;45.900;6.346;2023-11-18T10:39:56;94532.13;;;23.61;32.45
65359;BME280;52491;45.900;6.346;2023-11-18T10:42:26;94535.13;;;23.64;32.45
65359;BME280;52491;45.900;6.346;2023-11-18T10:44:59;94534.66;;;23.67;32.47
65359;BME280;52491;45.900;6.346;2023-11-18T10:47:28;94532.78;;;23.68;32.26
65359;BME280;52491;45.900;6.346;2023-11-18T10:49:57;94531.72;;;23.69;32.37
65359;BME280;52491;45.900;6.346;2023-11-18T10:52:24;94526.78;;;23.73;32.60
65359;BME280;52491;45.900;6.346;2023-11-18T10:54:52;94532.66;;;23.75;32.48
65359;BME280;52491;45.900;6.346;2023-11-18T10:57:24;94530.34;;;23.78;32.68
65359;BME280;52491;45.900;6.346;2023-11-18T11:00:04;94538.63;;;23.82;32.42
65359;BME280;52491;45.900;6.346;2023-11-18T11:02:38;94539.69;;;23.81;32.42
65359;BME280;52491;45.900;6.346;2023-11-18T11:05:10;94534.09;;;23.82;32.78
65359;BME280;52491;45.900;6.346;2023-11-18T11:07:42;94536.28;;;23.85;32.60
65359;BME280;52491;45.900;6.346;2023-11-18T11:10:08;94545.91;;;23.86;32.66
65359;BME280;52491;45.900;6.346;2023-11-18T11:12:43;94553.16;;;23.91;32.92
65359;BME280;52491;45.900;6.346;2023-11-18T11:15:41;94551.84;;;23.94;32.69
65359;BME280;52491;45.900;6.346;2023-11-18T11:18:12;94550.00;;;23.94;32.80
65359;BME280;52491;45.900;6.346;2023-11-18T11:21:04;94554.59;;;23.99;32.93
65359;BME280;52491;45.900;6.346;2023-11-18T11:23:46;94545.56;;;24.00;33.05
65359;BME280;52491;45.900;6.346;2023-11-18T11:27:09;94551.44;;;24.02;32.61
65359;BME280;52491;45.900;6.346;2023-11-18T11:29:51;94550.88;;;24.00;32.99
65359;BME280;52491;45.900;6.346;2023-11-18T11:32:25;94537.06;;;24.03;32.61
65359;BME280;52491;45.900;6.346;2023-11-18T11:34:59;94537.63;;;24.05;32.54
65359;BME280;52491;45.900;6.346;2023-11-18T11:37:33;94547.00;;;24.07;32.45
65359;BME280;52491;45.900;6.346;2023-11-18T11:40:02;94551.03;;;24.10;32.47
65359;BME280;52491;45.900;6.346;2023-11-18T11:42:34;94564.94;;;24.12;32.91
65359;BME280;52491;45.900;6.346;2023-11-18T11:45:01;94562.81;;;24.14;32.67
65359;BME280;52491;45.900;6.346;2023-11-18T11:47:30;94563.38;;;24.16;32.43
65359;BME280;52491;45.900;6.346;2023-11-18T11:50:14;94557.31;;;24.21;32.33
65359;BME280;52491;45.900;6.346;2023-11-18T11:52:53;94542.13;;;24.21;32.53
65359;BME280;52491;45.900;6.346;2023-11-18T11:55:33;94548.03;;;24.23;32.49
65359;BME280;52491;45.900;6.346;2023-11-18T11:58:02;94550.69;;;24.23;32.08
65359;BME280;52491;45.900;6.346;2023-11-18T12:00:27;94541.41;;;24.26;32.00
65359;BME280;52491;45.900;6.346;2023-11-18T12:03:01;94538.50;;;24.27;31.92
65359;BME280;52491;45.900;6.346;2023-11-18T12:05:29;94532.13;;;24.28;32.18
65359;BME280;52491;45.900;6.346;2023-11-18T12:07:59;94536.13;;;24.31;32.45
65359;BME280;52491;45.900;6.346;2023-11-18T12:10:31;94538.56;;;24.32;32.23
65359;BME280;52491;45.900;6.346;2023-11-18T12:13:10;94532.16;;;24.33;32.48
65359;BME280;52491;45.900;6.346;2023-11-18T12:15:55;94528.72;;;24.33;32.49
65359;BME280;52491;45.900;6.346;2023-11-18T12:18:24;94522.81;;;24.31;32.49
65359;BME280;52491;45.900;6.346;2023-11-18T12:20:50;94529.50;;;24.33;32.42
65359;BME280;52491;45.900;6.346;2023-11-18T12:23:20;94530.06;;;24.35;32.46
65359;BME280;52491;45.900;6.346;2023-11-18T12:25:53;94536.22;;;24.36;32.58
65359;BME280;52491;45.900;6.346;2023-11-18T12:28:32;94525.88;;;24.40;32.27
65359;BME280;52491;45.900;6.346;2023-11-18T12:31:10;94530.38;;;24.39;32.03
65359;BME280;52491;45.900;6.346;2023-11-18T12:42:08;94527.59;;;24.46;32.10
65359;BME280;52491;45.900;6.346;2023-11-18T12:45:19;94538.56;;;24.49;32.22
65359;BME280;52491;45.900;6.346;2023-11-18T12:47:52;94540.16;;;24.50;31.89
65359;BME280;52491;45.900;6.346;2023-11-18T12:50:21;94542.59;;;24.52;31.96
65359;BME280;52491;45.900;6.346;2023-11-18T12:52:53;94538.84;;;24.53;31.97
65359;BME280;52491;45.900;6.346;2023-11-18T12:55:20;94543.94;;;24.54;32.26
65359;BME280;52491;45.900;6.346;2023-11-18T12:57:49;94534.09;;;24.55;32.08
65359;BME280;52491;45.900;6.346;2023-11-18T13:00:17;94517.88;;;24.56;32.14
65359;BME280;52491;45.900;6.346;2023-11-18T13:02:55;94500.00;;;24.57;32.07
65359;BME280;52491;45.900;6.346;2023-11-18T13:05:23;94515.72;;;24.59;31.87
65359;BME280;52491;45.900;6.346;2023-11-18T13:07:58;94525.09;;;24.61;31.90
65359;BME280;52491;45.900;6.346;2023-11-18T13:10:26;94525.66;;;24.63;31.82
65359;BME280;52491;45.900;6.346;2023-11-18T13:12:53;94520.09;;;24.65;32.11
65359;BME280;52491;45.900;6.346;2023-11-18T13:15:19;94527.81;;;24.66;32.23
65359;BME280;52491;45.900;6.346;2023-11-18T13:18:05;94532.94;;;24.68;32.29
65359;BME280;52491;45.900;6.346;2023-11-18T13:20:32;94532.94;;;24.68;31.84
65359;BME280;52491;45.900;6.346;2023-11-18T13:23:01;94553.75;;;24.71;32.03
65359;BME280;52491;45.900;6.346;2023-11-18T13:25:34;94562.13;;;24.58;32.46
65359;BME280;52491;45.900;6.346;2023-11-18T13:28:01;94558.66;;;24.57;32.15
65359;BME280;52491;45.900;6.346;2023-11-18T13:30:27;94551.09;;;24.71;32.19